createdAt,value
2019-04-04T00:29:57.383Z,13.10
2019-04-04T00:32:26.217Z,13.10
2019-04-04T00:34:54.899Z,13.10
2019-04-04T00:37:23.587Z,13.20
2019-04-04T00:39:52.409Z,13.20
2019-04-04T00:42:21.030Z,13.20
2019-04-04T00:44:49.849Z,13.20
2019-04-04T00:47:18.608Z,13.20
2019-04-04T00:49:47.360Z,13.20
2019-04-04T00:52:16.108Z,13.30
2019-04-04T00:54:45.448Z,13.20
2019-04-04T00:57:14.217Z,13.20
2019-04-04T00:59:42.838Z,13.20
2019-04-04T01:02:11.581Z,13.20
2019-04-04T02:40:12.604Z,13.50
2019-04-04T02:42:41.358Z,13.50
2019-04-04T02:45:10.210Z,13.50
2019-04-04T02:47:38.895Z,13.40
2019-04-04T02:50:07.847Z,13.50
2019-04-04T02:52:36.624Z,13.40
2019-04-04T02:55:06.373Z,13.40
2019-04-04T02:57:35.129Z,13.40
2019-04-04T03:00:04.912Z,13.40
2019-04-04T03:02:36.066Z,13.30
2019-04-04T03:05:05.665Z,13.30
2019-04-04T03:07:34.429Z,13.30
2019-04-04T03:10:03.686Z,13.30
2019-04-04T03:12:32.522Z,13.20
2019-04-04T03:15:01.199Z,13.30
2019-04-04T03:17:32.568Z,13.30
2019-04-04T03:20:00.284Z,13.20
2019-04-04T03:22:29.035Z,13.20
2019-04-04T03:24:57.651Z,13.30
2019-04-04T03:27:27.183Z,13.20
2019-04-04T03:29:56.085Z,13.30
2019-04-04T03:32:24.768Z,13.20
2019-04-04T03:34:53.459Z,13.20
2019-04-04T03:37:22.126Z,13.20
2019-04-04T03:39:52.998Z,13.20
2019-04-04T03:42:21.206Z,13.20
2019-04-04T03:44:52.954Z,13.30
2019-04-04T03:47:20.201Z,13.30
2019-04-04T03:49:48.865Z,13.30
2019-04-04T03:52:17.569Z,13.30
2019-04-04T03:54:46.233Z,13.30
2019-04-04T03:57:14.998Z,13.30
2019-04-04T03:59:43.670Z,13.20
2019-04-04T04:02:12.355Z,13.20
2019-04-04T04:04:41.032Z,13.10
2019-04-04T04:07:13.852Z,13.10
2019-04-04T04:09:40.119Z,13.00
2019-04-04T04:12:11.195Z,13.00
2019-04-04T04:14:39.131Z,12.90
2019-04-04T04:17:09.073Z,12.90
2019-04-04T04:19:38.111Z,12.90
2019-04-04T04:22:06.744Z,12.90
2019-04-04T04:24:35.366Z,13.00
2019-04-04T04:27:03.980Z,12.90
2019-04-04T04:29:32.662Z,12.90
2019-04-04T04:32:01.460Z,12.90
2019-04-04T04:34:32.879Z,12.90
2019-04-04T04:37:00.391Z,13.00
2019-04-04T04:39:29.095Z,13.00
2019-04-04T04:41:57.848Z,13.00
2019-04-04T04:44:26.452Z,13.00
2019-04-04T04:46:55.196Z,13.10
2019-04-04T04:49:23.965Z,13.00
2019-04-04T04:51:52.731Z,13.00
2019-04-04T04:54:22.837Z,13.00
2019-04-04T04:56:51.772Z,13.00
2019-04-04T04:59:20.453Z,13.00
2019-04-04T05:01:50.551Z,13.00
2019-04-04T05:04:19.920Z,13.00
2019-04-04T05:06:48.798Z,13.00
2019-04-04T05:09:17.480Z,13.00
2019-04-04T05:11:46.207Z,13.00
2019-04-04T05:14:14.956Z,13.00
2019-04-04T05:16:43.667Z,13.00
2019-04-04T05:19:12.414Z,13.10
2019-04-04T05:21:40.999Z,13.10
2019-04-04T05:24:09.681Z,13.10
2019-04-04T05:26:38.693Z,13.10
2019-04-04T05:29:07.570Z,13.10
2019-04-04T05:31:36.292Z,13.20
2019-04-04T05:34:05.068Z,13.20
2019-04-04T05:36:35.898Z,13.20
2019-04-04T05:39:05.974Z,13.30
2019-04-04T05:41:37.231Z,13.30
2019-04-04T05:44:04.983Z,13.30
2019-04-04T05:46:33.787Z,13.30
2019-04-04T05:49:07.849Z,13.50
2019-04-04T05:51:35.984Z,13.50
2019-04-04T05:54:03.321Z,13.50
2019-04-04T05:56:32.145Z,13.50
2019-04-04T05:59:00.732Z,13.50
2019-04-04T06:01:29.476Z,13.50
2019-04-04T06:03:58.113Z,13.50
2019-04-04T06:06:26.861Z,13.50
2019-04-04T06:08:55.625Z,13.40
2019-04-04T06:11:24.290Z,13.40
2019-04-04T06:13:53.064Z,13.40
2019-04-04T06:16:21.809Z,13.40
2019-04-04T06:18:50.499Z,13.40
2019-04-04T06:21:19.267Z,13.40
2019-04-04T06:23:47.899Z,13.40
2019-04-04T06:26:16.613Z,13.40
2019-04-04T06:28:45.358Z,13.50
2019-04-04T06:31:14.055Z,13.40
2019-04-04T06:33:42.803Z,13.40
2019-04-04T06:36:11.554Z,13.50
2019-04-04T06:38:40.314Z,13.40
2019-04-04T06:41:09.072Z,13.50
2019-04-04T06:43:37.764Z,13.60
2019-04-04T06:46:06.523Z,13.60
2019-04-04T06:48:35.218Z,13.60
2019-04-04T06:51:03.976Z,13.60
2019-04-04T06:53:32.603Z,13.50
2019-04-04T06:56:01.311Z,13.50
2019-04-04T06:58:29.956Z,13.40
2019-04-04T07:00:58.715Z,13.50
2019-04-04T07:03:28.083Z,13.50
2019-04-04T07:05:56.814Z,13.50
2019-04-04T07:08:25.496Z,13.50
2019-04-04T07:10:58.249Z,13.50
2019-04-04T07:13:27.265Z,13.60
2019-04-04T07:16:05.989Z,13.60
2019-04-04T07:18:25.311Z,13.60
2019-04-04T07:20:54.054Z,13.60
2019-04-04T07:23:22.796Z,13.60
2019-04-04T07:25:53.460Z,13.70
2019-04-04T07:28:21.746Z,13.80
2019-04-04T07:30:50.425Z,13.80
2019-04-04T07:33:21.355Z,13.90
2019-04-04T07:35:49.621Z,14.00
2019-04-04T07:38:18.342Z,14.10
2019-04-04T07:40:47.004Z,14.10
2019-04-04T07:43:17.101Z,14.30
2019-04-04T07:45:46.216Z,14.30
2019-04-04T07:48:17.631Z,14.50
2019-04-04T07:50:45.296Z,14.60
2019-04-04T07:53:14.850Z,14.70
2019-04-04T07:55:43.476Z,14.90
2019-04-04T07:58:12.222Z,14.90
2019-04-04T08:00:40.917Z,15.10
2019-04-04T08:03:09.659Z,15.30
2019-04-04T08:05:38.354Z,15.50
2019-04-04T08:08:07.072Z,15.70
2019-04-04T08:10:35.819Z,15.60
2019-04-04T08:13:04.574Z,15.80
2019-04-04T08:15:35.848Z,15.90
2019-04-04T08:18:03.699Z,15.90
2019-04-04T08:20:32.382Z,15.80
2019-04-04T08:23:01.140Z,15.80
2019-04-04T08:25:29.843Z,15.70
2019-04-04T08:27:58.464Z,15.80
2019-04-04T08:30:27.223Z,15.70
2019-04-04T08:32:55.895Z,15.70
2019-04-04T08:35:24.567Z,15.60
2019-04-04T08:37:53.190Z,15.50
2019-04-04T08:40:21.929Z,15.50
2019-04-04T08:42:50.690Z,15.40
2019-04-04T08:45:19.502Z,15.50
2019-04-04T08:47:48.215Z,15.50
2019-04-04T08:50:16.948Z,15.50
2019-04-04T08:52:45.573Z,15.50
2019-04-04T08:55:14.334Z,15.50
2019-04-04T08:57:43.111Z,15.50
2019-04-04T09:00:12.549Z,15.40
2019-04-04T09:02:41.298Z,15.40
2019-04-04T09:05:12.222Z,15.30
2019-04-04T09:07:40.303Z,15.30
2019-04-04T09:10:09.464Z,15.30
2019-04-04T09:12:38.203Z,15.40
2019-04-04T09:15:09.663Z,15.40
2019-04-04T09:17:38.406Z,15.40
2019-04-04T09:20:09.679Z,15.50
2019-04-04T09:22:40.896Z,15.50
2019-04-04T09:25:10.663Z,15.50
2019-04-04T09:27:39.732Z,15.60
2019-04-04T09:30:09.329Z,15.60
2019-04-04T09:32:37.948Z,15.70
2019-04-04T09:35:07.599Z,15.70
2019-04-04T09:37:36.361Z,15.70
2019-04-04T09:40:06.767Z,15.80
2019-04-04T09:42:35.386Z,15.70
2019-04-04T09:45:06.306Z,15.50
2019-04-04T09:47:35.074Z,15.40
2019-04-04T09:50:04.167Z,15.30
2019-04-04T09:52:32.926Z,15.20
2019-04-04T09:55:01.690Z,15.10
2019-04-04T09:57:30.361Z,15.10
2019-04-04T09:59:59.126Z,15.20
2019-04-04T10:02:27.954Z,15.20
2019-04-04T10:04:56.698Z,15.20
2019-04-04T10:07:26.775Z,15.30
2019-04-04T10:09:55.531Z,15.30
2019-04-04T10:12:24.196Z,15.40
2019-04-04T10:14:52.882Z,15.40
2019-04-04T10:17:21.557Z,15.40
2019-04-04T10:19:50.305Z,15.40
2019-04-04T10:22:18.921Z,15.30
2019-04-04T10:24:47.600Z,15.30
2019-04-04T10:27:16.282Z,15.40
2019-04-04T10:29:44.965Z,15.40
2019-04-04T10:32:13.650Z,15.40
2019-04-04T10:34:42.253Z,15.40
2019-04-04T10:37:10.927Z,15.50
2019-04-04T10:39:39.679Z,15.50
2019-04-04T10:42:08.356Z,15.50
2019-04-04T10:44:37.349Z,15.60
2019-04-04T10:47:06.031Z,15.50
2019-04-04T10:49:34.708Z,15.60
2019-04-04T10:52:03.401Z,15.60
2019-04-04T10:54:32.156Z,15.70
2019-04-04T10:57:00.922Z,15.70
2019-04-04T10:59:29.668Z,15.70
2019-04-04T11:02:00.676Z,15.70
2019-04-04T11:04:28.784Z,15.70
2019-04-04T11:06:57.490Z,15.70
2019-04-04T11:09:26.241Z,15.70
2019-04-04T11:11:54.881Z,15.70
2019-04-04T11:14:25.159Z,15.80
2019-04-04T11:16:54.078Z,15.70
2019-04-04T11:19:31.023Z,15.70
2019-04-04T11:21:53.158Z,15.70
2019-04-04T11:24:21.921Z,15.70
2019-04-04T11:26:50.677Z,15.60
2019-04-04T11:29:19.366Z,15.50
2019-04-04T11:31:47.982Z,15.50
2019-04-04T11:34:16.733Z,15.40
2019-04-04T11:36:45.409Z,15.30
2019-04-04T11:39:14.216Z,15.20
2019-04-04T11:41:42.961Z,15.10
2019-04-04T11:44:11.649Z,15.10
2019-04-04T11:46:40.406Z,15.10
2019-04-04T11:49:09.159Z,15.10
2019-04-04T11:51:37.773Z,15.10
2019-04-04T11:54:06.448Z,15.20
2019-04-04T11:56:35.146Z,15.20
2019-04-04T11:59:03.908Z,15.20
2019-04-04T12:01:37.130Z,15.30
2019-04-04T12:04:05.878Z,15.30
2019-04-04T12:06:34.493Z,15.30
2019-04-04T12:09:03.105Z,15.40
2019-04-04T12:11:31.885Z,15.40
2019-04-04T12:14:00.638Z,15.50
2019-04-04T12:16:29.256Z,15.60
2019-04-04T12:18:57.991Z,15.70
2019-04-04T12:21:26.781Z,15.80
2019-04-04T12:23:55.612Z,15.80
2019-04-04T12:26:24.296Z,15.90
2019-04-04T12:28:53.045Z,15.80
2019-04-04T12:31:21.754Z,15.80
2019-04-04T12:33:50.502Z,15.80
2019-04-04T12:36:24.404Z,15.70
2019-04-04T12:38:49.514Z,15.80
2019-04-04T12:41:18.201Z,15.80
2019-04-04T12:43:58.542Z,15.70
2019-04-04T12:46:27.291Z,15.70
2019-04-04T12:48:55.975Z,15.80
2019-04-04T12:51:24.720Z,15.80
2019-04-04T12:53:53.385Z,15.80
2019-04-04T12:56:22.092Z,15.70
2019-04-04T12:58:50.829Z,15.70
2019-04-04T13:01:21.278Z,15.80
2019-04-04T13:03:49.793Z,15.80
2019-04-04T13:06:18.490Z,15.80
2019-04-04T13:08:47.164Z,15.80
2019-04-04T13:11:15.862Z,15.80
2019-04-04T13:13:44.535Z,15.80
2019-04-04T13:16:13.280Z,15.70
2019-04-04T13:18:42.038Z,15.70
2019-04-04T13:21:10.798Z,15.60
2019-04-04T13:23:39.564Z,15.70
2019-04-04T13:26:08.216Z,15.70
2019-04-04T13:28:36.858Z,15.50
2019-04-04T13:31:05.638Z,15.30
2019-04-04T13:33:34.267Z,15.10
2019-04-04T13:36:03.042Z,15.00
2019-04-04T13:38:31.801Z,14.90
2019-04-04T13:41:00.570Z,14.90
2019-04-04T13:43:29.186Z,14.70
2019-04-04T13:45:57.930Z,14.60
2019-04-04T13:48:26.697Z,14.50
2019-04-04T13:50:55.471Z,14.60
2019-04-04T13:53:25.616Z,14.60
2019-04-04T13:55:59.118Z,14.70
2019-04-04T13:58:28.029Z,14.70
2019-04-04T14:00:56.712Z,14.70
2019-04-04T14:03:25.473Z,14.70
2019-04-04T14:05:54.229Z,14.60
2019-04-04T14:08:22.977Z,14.50
2019-04-04T14:10:58.009Z,14.30
2019-04-04T14:13:22.069Z,14.20
2019-04-04T14:15:50.835Z,14.10
2019-04-04T14:18:22.370Z,14.00
2019-04-04T14:21:02.877Z,13.80
2019-04-04T14:23:23.642Z,13.70
2019-04-04T14:25:52.344Z,13.60
2019-04-04T14:28:21.109Z,13.60
2019-04-04T14:30:49.896Z,13.50
2019-04-04T14:33:18.680Z,13.50
2019-04-04T14:35:47.303Z,13.50
2019-04-04T14:38:16.060Z,13.40
2019-04-04T14:40:44.818Z,13.30
2019-04-04T14:43:13.514Z,13.30
2019-04-04T14:45:42.269Z,13.20
2019-04-04T14:48:11.610Z,13.20
2019-04-04T14:50:40.525Z,13.10
2019-04-04T14:53:09.197Z,13.10
2019-04-04T14:55:37.954Z,13.00
2019-04-04T14:58:06.701Z,13.10
2019-04-04T15:00:35.465Z,13.00
2019-04-04T15:03:04.324Z,13.10
2019-04-04T15:05:33.081Z,13.10
2019-04-04T15:08:01.851Z,13.10
2019-04-04T15:10:30.488Z,13.10
2019-04-04T15:12:59.175Z,13.10
2019-04-04T15:15:27.925Z,13.10
2019-04-04T15:17:56.622Z,13.10
2019-04-04T15:20:25.288Z,13.10
2019-04-04T15:22:54.047Z,13.10
2019-04-04T15:25:22.736Z,13.20
2019-04-04T15:27:51.430Z,13.20
2019-04-04T15:30:20.180Z,13.10
2019-04-04T15:32:48.942Z,13.20
2019-04-04T15:35:17.706Z,13.20
2019-04-04T15:37:46.349Z,13.20
2019-04-04T15:40:15.092Z,13.20
2019-04-04T15:42:43.705Z,13.30
2019-04-04T15:45:13.946Z,13.30
2019-04-04T15:47:42.618Z,13.30
2019-04-04T15:50:11.882Z,13.30
2019-04-04T15:52:40.561Z,13.20
2019-04-04T15:55:09.413Z,13.20
2019-04-04T15:57:38.179Z,13.10
2019-04-04T16:00:09.231Z,13.10
2019-04-04T16:02:37.913Z,13.10
2019-04-04T16:05:08.287Z,13.10
2019-04-04T16:07:37.028Z,13.00
2019-04-04T16:10:07.201Z,12.90
2019-04-04T16:12:35.892Z,12.90
2019-04-04T16:15:06.741Z,13.00
2019-04-04T16:17:35.430Z,13.00
2019-04-04T16:20:06.887Z,13.00
2019-04-04T16:22:35.638Z,13.00
2019-04-04T16:25:06.363Z,12.90
2019-04-04T16:27:35.054Z,12.90
2019-04-04T16:30:07.939Z,12.80
2019-04-04T16:32:36.037Z,12.70
2019-04-04T16:35:05.898Z,12.70
2019-04-04T16:37:34.514Z,12.70
2019-04-04T16:40:09.180Z,12.70
2019-04-04T16:42:33.528Z,12.60
2019-04-04T16:45:02.208Z,12.60
2019-04-04T16:47:30.964Z,12.60
2019-04-04T16:49:59.659Z,12.70
2019-04-04T16:52:28.738Z,12.70
2019-04-04T16:54:58.346Z,12.70
2019-04-04T16:57:27.068Z,12.70
2019-04-04T16:59:55.752Z,12.60
2019-04-04T17:02:24.511Z,12.60
2019-04-04T17:04:53.199Z,12.60
2019-04-04T17:07:21.813Z,12.60
2019-04-04T17:09:50.576Z,12.70
2019-04-04T17:12:19.329Z,12.70
2019-04-04T17:14:48.042Z,12.70
2019-04-04T17:17:16.783Z,12.70
2019-04-04T17:19:45.558Z,12.60
2019-04-04T17:22:14.234Z,12.60
2019-04-04T17:24:42.995Z,12.70
2019-04-04T17:27:11.673Z,12.70
2019-04-04T17:29:40.842Z,12.60
2019-04-04T17:32:09.716Z,12.70
2019-04-04T17:34:38.418Z,12.70
2019-04-04T17:37:07.595Z,12.60
2019-04-04T17:39:36.513Z,12.70
2019-04-04T17:42:05.746Z,12.70
2019-04-04T17:44:34.484Z,12.60
2019-04-04T17:47:03.216Z,12.70
2019-04-04T17:49:31.854Z,12.70
2019-04-04T17:52:00.713Z,12.60
2019-04-04T17:54:29.433Z,12.70
2019-04-04T17:56:58.198Z,12.70
2019-04-04T17:59:26.938Z,12.70
2019-04-04T18:01:55.627Z,12.70
2019-04-04T18:04:24.232Z,12.60
2019-04-04T18:06:52.930Z,12.70
2019-04-04T18:09:31.282Z,12.60
2019-04-04T18:11:51.957Z,12.70
2019-04-04T18:14:20.716Z,12.60
2019-04-04T18:16:49.507Z,12.60
2019-04-04T18:19:18.119Z,12.60
2019-04-04T18:21:46.948Z,12.70
2019-04-04T18:24:15.653Z,12.50
2019-04-04T18:26:44.266Z,12.20
2019-04-04T18:29:13.090Z,11.80
2019-04-04T18:31:41.777Z,11.50
2019-04-04T18:34:10.813Z,11.30
2019-04-04T18:36:39.571Z,11.20
2019-04-04T18:39:08.968Z,11.20
2019-04-04T18:41:37.610Z,11.10
2019-04-04T18:44:06.361Z,10.80
2019-04-04T18:46:35.120Z,10.60
2019-04-04T18:49:03.979Z,10.50
2019-04-04T18:51:32.722Z,10.40
2019-04-04T18:54:01.487Z,10.30
2019-04-04T18:56:31.513Z,10.20
2019-04-04T18:59:00.286Z,10.20
2019-04-04T19:01:32.010Z,10.20
2019-04-04T19:04:00.834Z,10.20
2019-04-04T19:06:29.598Z,10.30
2019-04-04T19:08:58.328Z,10.30
2019-04-04T19:11:27.013Z,10.40
2019-04-04T19:13:55.803Z,10.30
2019-04-04T19:16:24.596Z,10.30
2019-04-04T19:18:53.281Z,10.20
2019-04-04T19:21:22.053Z,10.20
2019-04-04T19:23:50.939Z,10.10
2019-04-04T19:26:19.613Z,10.10
2019-04-04T19:28:48.237Z,10.10
2019-04-04T19:31:17.016Z,9.90
2019-04-04T19:33:45.690Z,9.80
2019-04-04T19:36:14.379Z,9.70
2019-04-04T19:38:43.106Z,9.60
2019-04-04T19:41:11.858Z,9.60
2019-04-04T19:43:40.541Z,9.50
2019-04-04T19:46:09.368Z,9.40
2019-04-04T19:48:38.117Z,9.40
2019-04-04T19:51:06.782Z,9.40
2019-04-04T19:53:35.543Z,9.40
2019-04-04T19:56:04.445Z,9.50
2019-04-04T19:58:33.238Z,9.60
2019-04-04T20:01:02.082Z,9.60
2019-04-04T20:03:30.692Z,9.70
2019-04-04T20:05:59.541Z,9.60
2019-04-04T20:08:28.347Z,9.70
2019-04-04T20:10:57.087Z,9.70
2019-04-04T20:13:31.237Z,9.70
2019-04-04T20:15:56.147Z,9.80
2019-04-04T20:18:24.958Z,9.80
2019-04-04T20:20:53.681Z,9.80
2019-04-04T20:23:22.397Z,9.80
2019-04-04T20:25:51.155Z,9.80
2019-04-04T20:28:19.897Z,9.90
2019-04-04T20:30:48.565Z,9.90
2019-04-04T20:33:17.171Z,9.80
2019-04-04T20:35:45.924Z,9.90
2019-04-04T20:38:14.593Z,9.90
2019-04-04T20:40:43.275Z,9.90
2019-04-04T20:43:11.937Z,9.90
2019-04-04T20:45:40.685Z,10.00
2019-04-04T20:48:09.360Z,10.00
2019-04-04T20:50:38.078Z,10.00
2019-04-04T20:53:06.828Z,10.00
2019-04-04T20:55:35.529Z,9.90
2019-04-04T20:58:04.274Z,9.90
2019-04-04T21:00:32.945Z,9.90
2019-04-04T21:03:01.714Z,10.00
2019-04-04T21:05:30.379Z,10.00
2019-04-04T21:07:59.134Z,10.10
2019-04-04T21:10:27.806Z,10.00
2019-04-04T21:12:56.628Z,10.00
2019-04-04T21:15:25.362Z,9.90
2019-04-04T21:17:54.105Z,9.90
2019-04-04T21:20:22.722Z,10.00
2019-04-04T21:22:51.466Z,10.00
2019-04-04T21:25:20.150Z,10.00
2019-04-04T21:27:48.920Z,10.00
2019-04-04T21:30:17.775Z,9.90
2019-04-04T21:32:46.534Z,9.90
2019-04-04T21:35:15.225Z,10.00
2019-04-04T21:37:43.847Z,10.10
2019-04-04T21:40:12.702Z,10.10
2019-04-04T21:42:41.383Z,10.10
2019-04-04T21:45:10.231Z,10.10
2019-04-04T21:47:38.914Z,10.00
2019-04-04T21:50:08.174Z,10.10
2019-04-04T21:52:37.325Z,10.10
2019-04-04T21:55:06.886Z,10.10
2019-04-04T21:57:35.636Z,10.20
2019-04-04T22:00:05.955Z,10.20
2019-04-04T22:02:34.778Z,10.20
2019-04-04T22:05:05.021Z,10.20
2019-04-04T22:07:33.783Z,10.10
2019-04-04T22:10:03.603Z,10.10
2019-04-04T22:12:32.288Z,10.00
2019-04-04T22:15:01.041Z,10.00
2019-04-04T22:17:29.648Z,9.90
2019-04-04T22:19:58.260Z,9.90
2019-04-04T22:22:27.006Z,9.80
2019-04-04T22:24:55.745Z,9.80
2019-04-04T22:27:24.495Z,9.70
2019-04-04T22:29:53.233Z,9.70
2019-04-04T22:32:21.972Z,9.70
2019-04-04T22:34:50.713Z,9.70
2019-04-04T22:37:19.418Z,9.70
2019-04-04T22:39:48.021Z,9.70
2019-04-04T22:42:16.778Z,9.70
2019-04-04T22:44:45.370Z,9.60
2019-04-04T22:47:14.127Z,9.60
2019-04-04T22:49:42.825Z,9.50
2019-04-04T22:52:11.509Z,9.50
2019-04-04T22:54:40.243Z,9.50
2019-04-04T22:57:08.905Z,9.50
2019-04-04T22:59:37.590Z,9.50
2019-04-04T23:02:06.333Z,9.40
2019-04-04T23:04:35.017Z,9.50
2019-04-04T23:07:03.749Z,9.50
2019-04-04T23:09:32.422Z,9.50
2019-04-04T23:12:01.085Z,9.50
2019-04-04T23:14:29.837Z,9.50
2019-04-04T23:16:58.502Z,9.50
2019-04-04T23:19:27.180Z,9.50
2019-04-04T23:21:55.910Z,9.50
2019-04-04T23:24:24.666Z,9.60
2019-04-04T23:26:53.272Z,9.70
2019-04-04T23:29:22.043Z,9.70
2019-04-04T23:31:50.774Z,9.70
2019-04-04T23:34:19.445Z,9.70
2019-04-04T23:36:48.198Z,9.80
2019-04-04T23:39:17.037Z,9.80
2019-04-04T23:41:45.715Z,9.80
2019-04-04T23:44:14.317Z,9.80
2019-04-04T23:46:42.929Z,9.90
2019-04-04T23:49:11.610Z,9.90
2019-04-04T23:51:40.276Z,9.90
2019-04-04T23:54:08.892Z,10.00
2019-04-04T23:56:37.515Z,10.00
2019-04-04T23:59:06.181Z,10.00
